Terminal Aerodrome Forecast
Issued by NWS

Current Version | Previous Version | Graphics & Text | Print | Product List | Glossary On
Versions: 1 2 3 4 5 6 7 8 9 10 11 12 13 14 15 16 17 18 19 20 21 22 23 24 25
000
FTUS41 KILN 231100
TAFLCK
TAF
KLCK 231137Z 2312/2412 15007KT P6SM SCT035 OVC060
     FM232100 12010G16KT P6SM VCSH OVC050
     FM240000 12011G21KT 4SM -SHRA BR OVC025
     FM240400 16014G26KT 3SM -SHRA BR OVC009
     FM240800 19014G25KT P6SM VCSH OVC015
      TEMPO 2408/2412 5SM -SHRA BKN008 OVC012=

USA.gov is the U.S. government's official web portal to all federal, state and local government web resources and services.